Flight Track Log - Related Links

Times and Time Zones

All times are in EDT time to prevent confusion due to time zone crossing. See the N749PG flight status page for this flight to view local times or setup timezone preferences in your user account.

Time Position Orientation Groundspeed Altitude Reporting Facility
EDT Latitude Longitude Course Direction KTS MPH feet Rate Location/Type
Fri 12:22:18 PM 35.0667 -89.9833 270° West 110 127 900  Level KMEM
Fri 12:22:42 PM 35.0667 -90.0000 270° West 110 127 1,300 1,214 Climbing KMEM
Fri 12:23:42 PM 35.0500 -90.0333 239° Southwest 115 132 2,600 810 Climbing KMEM
Fri 12:24:48 PM 35.0500 -90.0833 270° West 150 173 3,000 190 Climbing KMEM
Fri 12:25:48 PM 35.0500 -90.1333 270° West 177 204 3,000  Level KMEM
Fri 12:26:42 PM 35.0500 -90.1833 270° West 175 201 3,000  Level KMEM
Fri 12:27:42 PM 35.0167 -90.2333 231° Southwest 168 193 3,000  Level KMEM
Fri 12:28:42 PM 34.9667 -90.2167 165° South 166 191 3,000 53 Level KMEM
Fri 12:29:36 PM 34.9333 -90.2167 180° South 167 192 3,100 842 Climbing KMEM
Fri 12:30:36 PM 34.8833 -90.2167 180° South 124 143 4,600 1,200 Climbing KMEM
Fri 12:31:36 PM 34.8500 -90.2167 180° South 123 142 5,500 952 Climbing KMEM
Fri 12:32:42 PM 34.8167 -90.2167 180° South 138 159 6,600 850 Climbing KMEM
Fri 12:33:36 PM 34.7833 -90.2167 180° South 140 161 7,200 700 Climbing KMEM
Fri 12:34:42 PM 34.7333 -90.2167 180° South 144 166 8,000 408 Climbing KMEM
Fri 12:35:19 PM 34.7089 -90.2181 183° South 151 174 7,900 -62 Descending Memphis Center
Fri 12:36:19 PM 34.6589 -90.2158 178° South 167 192 7,900  Level Memphis Center
Fri 12:37:19 PM 34.6089 -90.2133 178° South 172 198 7,900  Level Memphis Center
Fri 12:38:19 PM 34.5586 -90.2108 178° South 177 204 7,900 50 Level Memphis Center
Fri 12:39:19 PM 34.5086 -90.2108 180° South 177 204 8,000  Climbing Memphis Center
Fri 12:40:19 PM 34.4564 -90.2061 176° South 177 204 7,900 -50 Descending Memphis Center
Fri 12:41:19 PM 34.4022 -90.2036 178° South 177 204 7,900 50 Level Memphis Center
Fri 12:42:19 PM 34.3519 -90.2011 178° South 177 204 8,000 50 Climbing Memphis Center
Fri 12:43:19 PM 34.3000 -90.1989 178° South 182 209 8,000  Level Memphis Center
Fri 12:44:20 PM 34.2478 -90.1989 180° South 182 209 8,000  Level Memphis Center
Fri 12:45:19 PM 34.1975 -90.1939 175° South 182 209 8,000  Level Memphis Center
Fri 12:46:19 PM 34.1456 -90.1939 180° South 182 209 8,000  Level Memphis Center
Fri 12:47:19 PM 34.0933 -90.1917 178° South 182 209 8,000  Level Memphis Center
Fri 12:48:19 PM 34.0411 -90.1892 178° South 182 209 8,000  Level Memphis Center
Fri 12:49:19 PM 33.9889 -90.1867 178° South 182 209 8,000  Level Memphis Center
Fri 12:50:19 PM 33.9367 -90.1869 180° South 182 209 8,000  Level Memphis Center
Fri 12:51:20 PM 33.8908 -90.1819 175° South 182 209 8,000  Level Memphis Center
Fri 12:52:19 PM 33.8386 -90.1797 178° South 188 216 8,000  Level Memphis Center
Fri 12:53:19 PM 33.7864 -90.1797 180° South 188 216 8,000  Level Memphis Center
Fri 12:54:20 PM 33.7342 -90.1772 178° South 193 222 8,000  Level Memphis Center
Fri 12:55:19 PM 33.6822 -90.1725 176° South 193 222 8,000  Level Memphis Center
Fri 12:56:19 PM 33.6258 -90.1700 178° South 193 222 8,000  Level Memphis Center
Fri 12:57:19 PM 33.5736 -90.1703 180° South 193 222 8,000  Level Memphis Center
Fri 12:58:19 PM 33.5233 -90.1678 178° South 193 222 8,000  Level Memphis Center
Fri 12:59:20 PM 33.4714 -90.1681 180° South 193 222 8,000 -50 Level Memphis Center
Fri 01:00:19 PM 33.4211 -90.1706 182° South 193 222 7,900 -50 Descending Memphis Center
Fri 01:01:19 PM 33.3669 -90.1731 182° South 193 222 7,900  Level Memphis Center
Fri 01:02:19 PM 33.3169 -90.1758 183° South 198 228 7,900  Level Memphis Center
Fri 01:03:19 PM 33.2689 -90.1783 182° South 193 222 7,900  Level Memphis Center
Fri 01:04:20 PM 33.2167 -90.1783 180° South 188 216 7,900  Level Memphis Center
Fri 01:05:19 PM 33.1667 -90.1811 183° South 188 216 7,900  Level Memphis Center
Fri 01:06:19 PM 33.1144 -90.1836 182° South 188 216 7,900  Level Memphis Center
Fri 01:07:19 PM 33.0622 -90.1836 180° South 183 211 7,900  Level Memphis Center
Fri 01:08:19 PM 33.0119 -90.1889 185° South 183 211 7,900  Level Memphis Center
Fri 01:09:19 PM 32.9661 -90.1889 180° South 183 211 7,900  Level Memphis Center
Fri 01:10:19 PM 32.9161 -90.1914 182° South 183 211 7,900  Level Memphis Center
Fri 01:11:19 PM 32.8658 -90.1939 182° South 183 211 7,900 50 Level Memphis Center
Fri 01:12:19 PM 32.8158 -90.1967 183° South 183 211 8,000 50 Climbing Memphis Center
Fri 01:13:19 PM 32.7658 -90.1992 182° South 183 211 8,000  Level Memphis Center
Fri 01:14:19 PM 32.7156 -90.1992 180° South 183 211 8,000  Level Memphis Center
Fri 01:15:19 PM 32.6656 -90.2019 183° South 183 211 8,000  Level Memphis Center
Fri 01:16:19 PM 32.6133 -90.2044 182° South 177 204 8,000  Level Memphis Center
Fri 01:17:19 PM 32.5653 -90.2044 180° South 177 204 8,000  Level Memphis Center
Fri 01:18:19 PM 32.5172 -90.2069 183° South 177 204 8,000  Level Memphis Center
Fri 01:19:19 PM 32.4672 -90.2097 183° South 177 204 8,000  Level Memphis Center
Fri 01:20:19 PM 32.4172 -90.2122 182° South 177 204 8,000  Level Memphis Center
Fri 01:21:19 PM 32.3650 -90.2122 180° South 177 204 8,000  Level Memphis Center
Fri 01:22:19 PM 32.3169 -90.2147 183° South 177 204 8,000  Level Memphis Center
Fri 01:23:19 PM 32.2669 -90.2172 182° South 177 204 8,000  Level Memphis Center
Fri 01:25:00 PM 32.1889 -90.2207 182° South  Level FlightAware Approximate
Fri 01:26:27 PM 32.1128 -90.2250 182° South 181 208 8,000  Level Houston Center
Fri 01:27:07 PM 32.0789 -90.2275 184° South 177 204 8,000  Level Memphis Center
Fri 01:28:07 PM 32.0308 -90.2275 180° South 171 197 8,000  Level Memphis Center
Fri 01:29:07 PM 31.9808 -90.2300 182° South 171 197 8,000 -50 Level Memphis Center
Fri 01:30:07 PM 31.9286 -90.2325 182° South 183 211 7,900  Descending Memphis Center
Fri 01:31:07 PM 31.8806 -90.2350 183° South 183 211 8,000  Climbing Memphis Center
Fri 01:31:38 PM 31.8511 -90.2356 181° South 183 211 7,900  Descending Houston Center
Fri 01:32:40 PM 31.8000 -90.2383 183° South 185 213 8,000 48 Climbing Houston Center
Fri 01:33:42 PM 31.7494 -90.2397 181° South 184 212 8,000  Level Houston Center
Fri 01:34:44 PM 31.6992 -90.2417 182° South 182 209 8,000  Level Houston Center
Fri 01:35:46 PM 31.6483 -90.2442 182° South 182 209 8,000 -48 Level Houston Center
Fri 01:36:48 PM 31.5972 -90.2467 182° South 184 212 7,900  Descending Houston Center
Fri 01:37:51 PM 31.5361 -90.2486 182° South 183 211 8,000 48 Climbing Houston Center
Fri 01:38:53 PM 31.4844 -90.2503 182° South 185 213 8,000  Level Houston Center
Fri 01:39:55 PM 31.4339 -90.2536 183° South 184 212 8,000  Level Houston Center
Fri 01:40:57 PM 31.3828 -90.2553 182° South 183 211 8,000  Level Houston Center
Fri 01:41:59 PM 31.3328 -90.2564 181° South 181 208 8,000  Level Houston Center
Fri 01:43:01 PM 31.2714 -90.2525 177° South 187 215 8,000  Level Houston Center
Fri 01:44:03 PM 31.2208 -90.2428 171° South 185 213 8,000  Level Houston Center
Fri 01:45:06 PM 31.1717 -90.2436 181° South 189 217 8,000  Level Houston Center
Fri 01:46:08 PM 31.1214 -90.2417 178° South 183 211 8,000  Level Houston Center
Fri 01:47:10 PM 31.0725 -90.2386 177° South 178 205 8,000  Level Houston Center
Fri 01:48:12 PM 31.0228 -90.2353 177° South 178 205 8,000  Level Houston Center
Fri 01:49:14 PM 30.9628 -90.2322 177° South 179 206 8,000  Level Houston Center
Fri 01:50:16 PM 30.9139 -90.2289 177° South 178 205 8,000  Level Houston Center
Fri 01:51:19 PM 30.8647 -90.2258 177° South 177 204 8,000  Level Houston Center
Fri 01:51:34 PM 30.8528 -90.2256 179° South 179 206 8,000  Level Houston Center
Fri 01:52:21 PM 30.8142 -90.2222 176° South 181 208 8,000  Level Houston Center
Fri 01:52:23 PM 30.8131 -90.2225 192° South 180 207 8,000  Level Houston Center
Fri 01:53:11 PM 30.7669 -90.2194 177° South 179 206 8,000  Level Houston Center
Fri 01:53:23 PM 30.7647 -90.2183 157° South 179 206 8,000 -486 Level Houston Center
Fri 01:54:25 PM 30.7025 -90.2128 176° South 183 211 7,400 -621 Descending Houston Center
Fri 01:55:19 PM 30.6494 -90.2050 173° South 216 249 6,800 -677 Descending Houston Center
Fri 01:55:27 PM 30.6453 -90.2033 161° South 204 235 6,700 -686 Descending Houston Center
Fri 01:56:29 PM 30.5872 -90.1856 165° South 217 250 6,000 -738 Descending Houston Center
Fri 01:56:32 PM 30.5778 -90.1836 170° South 215 247 5,900 -667 Descending Houston Center
Fri 01:57:32 PM 30.5322 -90.1700 166° South 209 241 5,300 -689 Descending Houston Center
Fri 01:57:33 PM 30.5231 -90.1667 163° South 203 234 5,200 -873 Descending Houston Center
Fri 01:58:27 PM 30.4722 -90.1519 166° South 203 234 4,500 -590 Descending Houston Center
Fri 01:58:34 PM 30.4778 -90.1528 353° North 204 235 4,600 -612 Climbing Houston Center
Fri 01:59:16 PM 30.4303 -90.1417 169° South 202 232 4,000 -871 Descending Houston Center
Fri 01:59:36 PM 30.4136 -90.1344 160° South 201 231 3,700 -806 Descending Houston Center
Fri 02:00:23 PM 30.3692 -90.1225 167° South 194 223 3,100 -677 Descending Houston Center
Fri 02:00:38 PM 30.3614 -90.1206 168° South 197 227 3,000 -109 Descending Houston Center
Fri 02:01:18 PM 30.3228 -90.1122 169° South 183 211 3,000  Level Houston Center
Fri 02:01:40 PM 30.3122 -90.1081 161° South 190 219 3,000  Level Houston Center
Fri 02:02:31 PM 30.2725 -90.1072 179° South 153 176 3,000  Level Houston Center
Fri 02:02:42 PM 30.2694 -90.1061 163° South 169 194 3,000  Level Houston Center
Fri 02:03:38 PM 30.2219 -90.0997 173° South 157 181 3,000  Level Houston Center
Fri 02:03:44 PM 30.2264 -90.1003 354° North 160 184 3,000  Level Houston Center
Fri 02:04:32 PM 30.1800 -90.0942 174° South 159 183 3,000  Level Houston Center
Fri 02:04:47 PM 30.1822 -90.0947 348° North 159 183 3,000  Level Houston Center
Fri 02:05:33 PM 30.1361 -90.0889 174° South 158 182 3,000  Level Houston Center
Fri 02:05:49 PM 30.1297 -90.0881 174° South 159 183 3,000  Level Houston Center
Fri 02:06:34 PM 30.0942 -90.0833 173° South 158 182 3,000  Level Houston Center
Fri 02:06:51 PM 30.0858 -90.0819 172° South 159 183 3,000 -900 Level Houston Center
Fri 02:07:34 PM 30.0481 -90.0781 175° South 159 183 2,100 -1,065 Descending Houston Center
Fri 02:07:53 PM 30.0411 -90.0756 163° South 160 184 1,900 -1,279 Descending Houston Center
Fri 02:08:35 PM 30.0100 -90.0653 164° South 145 167 800 -1,161 Descending Houston Center
Fri 02:08:55 PM 30.0072 -90.0575 112° Southeast 158 182 700 -109 Descending Houston Center
Fri 02:09:30 PM 30.0089 -90.0342 85° East 106 122 700 -290 Level Houston Center
Fri 02:09:57 PM 30.0192 -90.0303 18° North 116 133 400 -667 Descending Houston Center
Fri 02:11:00 PM 30.0424 -90.0283 40° Northeast  Level Estimated

Login

Don't have an account? Register now (free) for customized features, flight alerts, and more!